Time;durP1;ratioP1;P1;durP2;ratioP2;P2;SDS_P1;SDS_P2;PMS_P1;PMS_P2;Temp;Humidity;BMP_temperature;BMP_pressure;BME280_temperature;BME280_humidity;BME280_pressure;Samples;Min_cycle;Max_cycle;Signal;HPM_P1;HPM_P2
2024/04/14 00:01:05;;;;;;;7.70;1.90;;;;;;;;;;5107905;23;93780;-83
2024/04/14 00:04:26;;;;;;;6.90;2.00;;;;;;;;;;4900982;28;88996;-84
2024/04/14 00:07:28;;;;;;;10.40;2.05;;;;;;;;;;5765820;22;90068;-81
2024/04/14 00:10:22;;;;;;;8.55;2.05;;;;;;;;;;4918490;28;91340;-80
2024/04/14 00:13:03;;;;;;;9.60;2.30;;;;;;;;;;4959263;28;87159;-81
2024/04/14 00:16:18;;;;;;;6.28;2.45;;;;;;;;;;4937704;28;92044;-80
2024/04/14 00:19:09;;;;;;;9.20;2.50;;;;;;;;;;4956156;28;87527;-81
2024/04/14 00:22:12;;;;;;;6.72;2.10;;;;;;;;;;4947616;28;89288;-83
2024/04/14 00:25:02;;;;;;;10.55;2.10;;;;;;;;;;4931767;28;92797;-79
2024/04/14 00:28:08;;;;;;;7.63;2.10;;;;;;;;;;4912999;28;90950;-80
2024/04/14 00:30:49;;;;;;;8.18;2.20;;;;;;;;;;4926881;28;86370;-81
2024/04/14 00:33:34;;;;;;;7.22;2.20;;;;;;;;;;4903484;28;89929;-82
2024/04/14 00:36:23;;;;;;;8.63;2.33;;;;;;;;;;4865409;28;91607;-82
2024/04/14 00:39:05;;;;;;;8.45;2.30;;;;;;;;;;4877524;28;87858;-80
2024/04/14 00:41:48;;;;;;;7.30;2.08;;;;;;;;;;4891824;28;88257;-80
2024/04/14 00:44:25;;;;;;;8.30;2.08;;;;;;;;;;4890839;28;86824;-79
2024/04/14 00:46:57;;;;;;;10.23;2.70;;;;;;;;;;4896038;28;89873;-78
2024/04/14 00:49:38;;;;;;;8.18;2.30;;;;;;;;;;4946427;28;87641;-82
2024/04/14 00:52:17;;;;;;;8.23;2.20;;;;;;;;;;4927068;28;89360;-80
2024/04/14 00:54:57;;;;;;;9.32;2.40;;;;;;;;;;4926143;28;90012;-80
2024/04/14 00:57:31;;;;;;;6.82;1.95;;;;;;;;;;4927729;28;87153;-81
2024/04/14 01:00:01;;;;;;;8.80;2.13;;;;;;;;;;4944336;28;86743;-81
2024/04/14 01:02:45;;;;;;;9.70;2.58;;;;;;;;;;4937346;28;86996;-81
2024/04/14 01:05:36;;;;;;;8.40;2.10;;;;;;;;;;4936806;28;88644;-81
2024/04/14 01:12:32;;;;;;;9.43;2.40;;;;;;;;;;5004799;23;92056;-83
2024/04/14 01:15:37;;;;;;;9.65;2.33;;;;;;;;;;4927298;28;87324;-84
2024/04/14 01:19:19;;;;;;;9.93;2.63;;;;;;;;;;5027936;23;88778;-84
2024/04/14 01:31:37;;;;;;;9.68;2.50;;;;;;;;;;5209602;23;89623;-82
2024/04/14 01:34:40;;;;;;;8.32;2.15;;;;;;;;;;4927216;28;92430;-81
2024/04/14 01:37:34;;;;;;;9.48;2.50;;;;;;;;;;4946542;28;88210;-82
2024/04/14 01:40:46;;;;;;;8.15;2.25;;;;;;;;;;4873824;28;94045;-81
2024/04/14 01:47:51;;;;;;;5.68;1.73;;;;;;;;;;4963145;28;94235;-81
2024/04/14 01:51:03;;;;;;;9.73;1.80;;;;;;;;;;4909640;28;89883;-82
2024/04/14 01:54:08;;;;;;;9.07;1.73;;;;;;;;;;4866819;28;93483;-83
2024/04/14 02:01:22;;;;;;;7.97;1.35;;;;;;;;;;4779979;28;89903;-83
2024/04/14 02:04:44;;;;;;;8.18;1.75;;;;;;;;;;4810263;29;87577;-82
2024/04/14 02:08:00;;;;;;;8.25;1.33;;;;;;;;;;4865895;28;87977;-83
2024/04/14 02:11:30;;;;;;;6.30;1.45;;;;;;;;;;4835058;28;87619;-83
2024/04/14 02:14:45;;;;;;;7.78;1.50;;;;;;;;;;5629080;22;122190;-83
2024/04/14 02:25:23;;;;;;;7.45;1.48;;;;;;;;;;4974556;23;88762;-84
2024/04/14 02:57:01;;;;;;;6.35;1.27;;;;;;;;;;5446044;23;90944;-81
2024/04/14 02:59:50;;;;;;;9.70;1.95;;;;;;;;;;4852914;28;89896;-82
2024/04/14 03:02:25;;;;;;;;;;;;;;;;;;4866810;28;87305;-81
2024/04/14 03:09:08;;;;;;;9.20;1.20;;;;;;;;;;5392627;20;7941943;-82
2024/04/14 03:15:27;;;;;;;7.80;1.30;;;;;;;;;;5341479;22;88769;-81
2024/04/14 04:00:04;;;;;;;5.88;1.42;;;;;;;;;;5575528;22;88736;-81
2024/04/14 04:02:54;;;;;;;6.55;1.25;;;;;;;;;;5146501;27;88051;-82
2024/04/14 04:05:48;;;;;;;8.07;1.35;;;;;;;;;;5182139;27;86151;-82
2024/04/14 05:53:04;;;;;;;7.05;1.30;;;;;;;;;;5761337;22;88614;-82
2024/04/14 05:56:08;;;;;;;6.65;1.40;;;;;;;;;;5311657;22;88439;-83
2024/04/14 05:59:22;;;;;;;7.68;1.45;;;;;;;;;;5199837;22;88439;-83
2024/04/14 06:02:45;;;;;;;7.53;1.30;;;;;;;;;;5043038;27;93212;-81
2024/04/14 06:06:36;;;;;;;8.15;1.40;;;;;;;;;;5012222;27;91350;-82
2024/04/14 06:09:33;;;;;;;8.05;1.30;;;;;;;;;;4982375;28;85279;-80
2024/04/14 06:12:41;;;;;;;7.53;1.27;;;;;;;;;;4903216;25;87568;-81
2024/04/14 06:16:13;;;;;;;;;;;;;;;;;;;;;
2024/04/14 06:22:30;;;;;;;7.20;1.30;;;;;;;;;;5014681;25;84957;-81
2024/04/14 06:25:34;;;;;;;6.93;1.38;;;;;;;;;;5079069;27;85761;-81
2024/04/14 06:45:21;;;;;;;;;;;;;;;;;;;;;
2024/04/14 06:51:56;;;;;;;12.90;1.80;;;;;;;;;;5575501;22;88652;-86
2024/04/14 06:55:11;;;;;;;11.10;1.65;;;;;;;;;;5179507;22;91760;-81
2024/04/14 06:59:12;;;;;;;;;;;;;;;;;;;;;
2024/04/14 07:34:50;;;;;;;;;;;;;;;;;;;;;
2024/04/14 07:38:32;;;;;;;7.88;1.55;;;;;;;;;;5410629;22;88555;-81
2024/04/14 07:45:38;;;;;;;9.00;1.35;;;;;;;;;;5073743;27;87593;-86
2024/04/14 07:48:30;;;;;;;6.40;1.42;;;;;;;;;;5060962;27;91773;-82
2024/04/14 07:51:14;;;;;;;5.20;1.20;;;;;;;;;;5062729;27;87378;-86
2024/04/14 07:54:07;;;;;;;5.47;1.25;;;;;;;;;;5068630;27;89017;-84
2024/04/14 07:57:19;;;;;;;;;;;;;;;;;;;;;
2024/04/14 08:11:11;;;;;;;6.20;1.20;;;;;;;;;;5146407;22;90346;-83
2024/04/14 08:14:34;;;;;;;10.48;1.40;;;;;;;;;;5065701;22;89491;-81
2024/04/14 08:17:35;;;;;;;6.00;1.10;;;;;;;;;;5126565;22;88390;-83
2024/04/14 08:23:51;;;;;;;5.47;1.10;;;;;;;;;;5501903;22;88013;-82
2024/04/14 08:27:04;;;;;;;7.65;1.30;;;;;;;;;;5505338;22;89688;-83
2024/04/14 08:29:57;;;;;;;6.38;1.40;;;;;;;;;;5581847;22;89471;-83
2024/04/14 08:39:24;;;;;;;6.88;1.20;;;;;;;;;;5225004;22;89744;-84
2024/04/14 08:42:25;;;;;;;6.03;1.10;;;;;;;;;;5395518;22;89655;-84
2024/04/14 08:45:49;;;;;;;7.97;1.58;;;;;;;;;;5375116;22;88914;-83
2024/04/14 08:48:42;;;;;;;7.28;1.20;;;;;;;;;;5170609;22;89489;-84
2024/04/14 08:54:47;;;;;;;6.05;1.33;;;;;;;;;;5314820;22;90787;-83
2024/04/14 09:01:04;;;;;;;5.63;1.20;;;;;;;;;;5193249;22;88493;-83
2024/04/14 09:04:23;;;;;;;5.13;1.15;;;;;;;;;;5117359;22;87920;-82
2024/04/14 09:13:42;;;;;;;3.97;0.88;;;;;;;;;;5753431;22;89788;-82
2024/04/14 09:16:16;;;;;;;4.85;1.20;;;;;;;;;;5046694;27;91209;-82
2024/04/14 09:20:05;;;;;;;4.03;1.05;;;;;;;;;;5089342;22;86558;-87
2024/04/14 09:30:55;;;;;;;6.45;1.17;;;;;;;;;;5593108;22;89420;-84
2024/04/14 09:34:09;;;;;;;5.88;1.17;;;;;;;;;;5250851;22;88755;-85
2024/04/14 09:37:03;;;;;;;8.10;1.20;;;;;;;;;;5235936;22;91349;-85
2024/04/14 09:40:13;;;;;;;4.75;1.02;;;;;;;;;;5740862;22;89578;-82
2024/04/14 09:56:05;;;;;;;10.73;1.48;;;;;;;;;;5141874;27;86053;-80
2024/04/14 09:59:09;;;;;;;12.13;1.40;;;;;;;;;;5121521;27;89474;-82
2024/04/14 10:02:03;;;;;;;17.17;1.70;;;;;;;;;;5085366;27;87589;-82
2024/04/14 10:05:44;;;;;;;11.25;1.30;;;;;;;;;;5063645;27;90950;-81
2024/04/14 10:08:56;;;;;;;9.00;1.27;;;;;;;;;;4975010;27;95359;-79
2024/04/14 10:11:51;;;;;;;5.47;1.08;;;;;;;;;;5111063;27;115758;-79
2024/04/14 10:14:51;;;;;;;9.25;1.27;;;;;;;;;;5058767;27;90268;-80
2024/04/14 10:17:42;;;;;;;6.57;1.20;;;;;;;;;;5118718;27;86186;-78
2024/04/14 10:20:17;;;;;;;5.35;1.20;;;;;;;;;;5109753;27;92994;-80
2024/04/14 10:23:01;;;;;;;16.08;1.80;;;;;;;;;;5087152;27;86417;-83
2024/04/14 10:25:52;;;;;;;15.70;1.70;;;;;;;;;;5112677;27;86534;-80
2024/04/14 10:28:35;;;;;;;8.80;1.10;;;;;;;;;;5060866;27;91623;-83
2024/04/14 10:31:08;;;;;;;;;;;;;;;;;;5085794;27;89337;-83
2024/04/14 10:33:59;;;;;;;7.75;1.35;;;;;;;;;;5119765;27;89284;-82
2024/04/14 10:36:40;;;;;;;11.95;1.23;;;;;;;;;;5144422;27;90252;-81
2024/04/14 10:39:32;;;;;;;10.60;1.40;;;;;;;;;;5117398;27;87734;-83
2024/04/14 10:42:05;;;;;;;9.90;1.20;;;;;;;;;;5120624;27;95528;-81
2024/04/14 10:44:46;;;;;;;20.23;1.80;;;;;;;;;;5177012;27;89184;-81
2024/04/14 10:47:21;;;;;;;13.48;1.38;;;;;;;;;;5147194;27;86907;-82
2024/04/14 10:50:10;;;;;;;8.98;1.27;;;;;;;;;;5160039;27;90951;-81
2024/04/14 10:52:52;;;;;;;6.53;1.17;;;;;;;;;;5114787;27;87127;-81
2024/04/14 10:55:58;;;;;;;10.40;1.50;;;;;;;;;;4993124;27;89047;-81
2024/04/14 10:58:38;;;;;;;7.63;0.90;;;;;;;;;;5117279;27;87030;-79
2024/04/14 11:01:09;;;;;;;7.00;1.33;;;;;;;;;;5105836;27;86219;-82
2024/04/14 11:03:42;;;;;;;7.43;1.10;;;;;;;;;;5097544;27;89077;-81
2024/04/14 11:06:14;;;;;;;7.50;1.10;;;;;;;;;;5140948;27;87034;-81
2024/04/14 11:08:46;;;;;;;4.30;1.02;;;;;;;;;;5118138;27;87966;-82
2024/04/14 11:11:28;;;;;;;8.50;1.00;;;;;;;;;;5140593;27;86858;-81
2024/04/14 11:14:25;;;;;;;6.47;0.93;;;;;;;;;;5073610;27;89242;-81
2024/04/14 11:17:20;;;;;;;6.38;1.00;;;;;;;;;;5116607;27;88266;-82
2024/04/14 11:19:56;;;;;;;3.35;0.82;;;;;;;;;;5141672;27;92840;-82
2024/04/14 11:22:28;;;;;;;5.30;0.95;;;;;;;;;;5143494;27;88539;-82
2024/04/14 11:24:58;;;;;;;3.67;0.90;;;;;;;;;;5082109;27;87244;-80
2024/04/14 11:27:31;;;;;;;3.85;0.90;;;;;;;;;;5108564;27;86089;-78
2024/04/14 11:30:04;;;;;;;4.05;0.90;;;;;;;;;;5142275;27;86302;-82
2024/04/14 11:32:48;;;;;;;5.22;1.13;;;;;;;;;;5137163;27;90697;-81
2024/04/14 11:35:29;;;;;;;6.20;1.20;;;;;;;;;;5135547;27;87591;-81
2024/04/14 11:38:10;;;;;;;7.30;1.00;;;;;;;;;;5047393;27;93091;-82
2024/04/14 11:40:54;;;;;;;4.07;1.05;;;;;;;;;;5095843;27;88832;-81
2024/04/14 11:47:00;;;;;;;4.40;0.98;;;;;;;;;;5096291;27;86787;-81
2024/04/14 11:49:53;;;;;;;7.60;1.23;;;;;;;;;;5053685;27;89104;-81
2024/04/14 11:52:33;;;;;;;4.75;1.00;;;;;;;;;;5083850;27;88512;-83
2024/04/14 11:55:14;;;;;;;7.35;1.27;;;;;;;;;;5116796;27;86677;-81
2024/04/14 11:57:48;;;;;;;5.07;1.10;;;;;;;;;;5085936;27;88667;-82
2024/04/14 12:00:34;;;;;;;6.70;1.17;;;;;;;;;;5097021;27;87610;-81
2024/04/14 12:03:13;;;;;;;6.32;1.10;;;;;;;;;;5079739;27;92754;-80
2024/04/14 12:05:57;;;;;;;5.50;1.20;;;;;;;;;;5104982;27;88428;-80
2024/04/14 12:08:57;;;;;;;5.70;1.10;;;;;;;;;;5144134;27;88720;-81
2024/04/14 12:11:27;;;;;;;6.00;1.20;;;;;;;;;;5178175;27;86726;-81
2024/04/14 12:14:02;;;;;;;6.10;1.20;;;;;;;;;;5109325;27;88347;-81
2024/04/14 12:16:44;;;;;;;4.40;1.02;;;;;;;;;;5098166;27;86885;-82
2024/04/14 12:19:17;;;;;;;4.78;1.13;;;;;;;;;;5118551;27;90494;-81
2024/04/14 12:21:50;;;;;;;5.15;1.30;;;;;;;;;;5113421;27;87614;-80
2024/04/14 12:24:24;;;;;;;6.13;1.10;;;;;;;;;;5145766;27;86374;-81
2024/04/14 12:26:53;;;;;;;5.45;1.25;;;;;;;;;;5091343;27;90307;-80
2024/04/14 12:29:22;;;;;;;3.70;1.13;;;;;;;;;;5146032;27;87552;-80
2024/04/14 12:31:58;;;;;;;6.88;1.02;;;;;;;;;;5120485;27;88838;-80
2024/04/14 12:34:30;;;;;;;4.15;0.90;;;;;;;;;;5119600;27;86779;-79
2024/04/14 12:36:59;;;;;;;2.95;1.00;;;;;;;;;;5173077;27;86547;-80
2024/04/14 12:39:30;;;;;;;3.60;1.00;;;;;;;;;;5140242;27;90248;-78
2024/04/14 12:42:02;;;;;;;6.38;1.10;;;;;;;;;;5148987;27;88889;-80
2024/04/14 12:44:34;;;;;;;3.83;1.00;;;;;;;;;;5101869;27;88116;-79
2024/04/14 12:47:06;;;;;;;4.00;0.90;;;;;;;;;;5119426;27;86116;-80
2024/04/14 12:49:40;;;;;;;2.70;0.80;;;;;;;;;;5109311;27;86209;-80
2024/04/14 12:52:12;;;;;;;5.75;1.02;;;;;;;;;;5090783;27;93734;-80
2024/04/14 12:54:43;;;;;;;4.45;1.02;;;;;;;;;;5174127;27;87901;-79
2024/04/14 12:57:19;;;;;;;6.10;1.40;;;;;;;;;;5117500;27;89657;-81
2024/04/14 13:00:01;;;;;;;8.27;1.50;;;;;;;;;;5151854;27;88991;-82
2024/04/14 13:02:44;;;;;;;9.15;1.75;;;;;;;;;;5116152;27;87771;-82
2024/04/14 13:05:35;;;;;;;4.65;1.40;;;;;;;;;;5072310;27;86839;-81
2024/04/14 13:08:56;;;;;;;5.97;1.27;;;;;;;;;;5016803;27;91424;-80
2024/04/14 13:12:28;;;;;;;4.18;1.20;;;;;;;;;;5042602;27;87471;-82
2024/04/14 13:15:31;;;;;;;6.68;1.30;;;;;;;;;;5088259;27;87624;-81
2024/04/14 13:18:23;;;;;;;6.20;1.27;;;;;;;;;;5090641;27;94152;-82
2024/04/14 13:20:56;;;;;;;5.38;1.30;;;;;;;;;;5119160;27;86855;-82
2024/04/14 13:23:48;;;;;;;6.13;1.20;;;;;;;;;;5135023;27;87668;-83
2024/04/14 13:26:22;;;;;;;7.30;1.45;;;;;;;;;;5128080;27;91509;-80
2024/04/14 13:29:03;;;;;;;5.55;1.40;;;;;;;;;;5111741;27;86769;-81
2024/04/14 13:31:46;;;;;;;7.10;1.55;;;;;;;;;;5088207;27;89605;-82
2024/04/14 13:34:29;;;;;;;6.55;1.33;;;;;;;;;;5095004;27;86153;-83
2024/04/14 13:37:10;;;;;;;4.65;1.25;;;;;;;;;;5111563;27;87311;-82
2024/04/14 13:40:12;;;;;;;3.10;1.00;;;;;;;;;;4979635;28;91377;-82
2024/04/14 13:43:06;;;;;;;5.72;1.30;;;;;;;;;;5103087;27;88375;-83
2024/04/14 13:45:57;;;;;;;6.80;1.23;;;;;;;;;;5068436;27;86572;-80
2024/04/14 13:52:45;;;;;;;6.43;1.30;;;;;;;;;;5071524;27;92992;-80
2024/04/14 13:55:43;;;;;;;6.45;1.38;;;;;;;;;;5064857;27;89609;-81
2024/04/14 13:58:19;;;;;;;5.60;1.25;;;;;;;;;;5079502;27;93120;-81
2024/04/14 14:01:10;;;;;;;5.38;1.42;;;;;;;;;;5053704;27;87246;-82
2024/04/14 14:03:54;;;;;;;8.63;1.40;;;;;;;;;;5043714;27;88650;-83
2024/04/14 14:07:05;;;;;;;5.50;1.20;;;;;;;;;;5044809;27;87586;-81
2024/04/14 14:09:36;;;;;;;6.43;1.38;;;;;;;;;;5050493;27;88760;-83
2024/04/14 14:12:29;;;;;;;4.65;1.10;;;;;;;;;;5068869;27;92347;-80
2024/04/14 14:15:12;;;;;;;6.53;1.40;;;;;;;;;;5081180;27;86790;-81
2024/04/14 14:17:55;;;;;;;7.03;1.48;;;;;;;;;;5067859;27;86964;-84
2024/04/14 14:20:46;;;;;;;6.22;1.23;;;;;;;;;;5028724;27;88245;-84
2024/04/14 14:23:49;;;;;;;6.53;1.33;;;;;;;;;;5035444;27;89947;-85
2024/04/14 14:29:55;;;;;;;7.80;1.35;;;;;;;;;;5097135;27;87339;-83
2024/04/14 14:33:08;;;;;;;4.93;1.23;;;;;;;;;;5039450;27;86890;-82
2024/04/14 14:39:12;;;;;;;4.43;1.20;;;;;;;;;;5081066;27;88521;-83
2024/04/14 14:42:55;;;;;;;5.47;1.10;;;;;;;;;;5067279;27;92687;-81
2024/04/14 14:45:47;;;;;;;3.85;1.13;;;;;;;;;;5045759;27;88453;-82
2024/04/14 14:51:52;;;;;;;4.22;1.25;;;;;;;;;;5046372;28;87199;-84
2024/04/14 14:54:33;;;;;;;6.43;1.23;;;;;;;;;;5050105;27;89649;-83
2024/04/14 14:57:26;;;;;;;5.60;1.48;;;;;;;;;;5024335;28;86622;-83
2024/04/14 15:00:28;;;;;;;;;;;;;;;;;;5046881;27;86592;-84
2024/04/14 15:03:02;;;;;;;6.43;1.20;;;;;;;;;;5076631;22;88712;-82
2024/04/14 15:05:45;;;;;;;4.80;1.30;;;;;;;;;;4951507;28;89543;-82
2024/04/14 15:08:47;;;;;;;3.00;0.93;;;;;;;;;;4997922;28;90129;-83
2024/04/14 15:11:48;;;;;;;4.38;1.10;;;;;;;;;;5016412;28;86801;-83
2024/04/14 15:14:30;;;;;;;4.97;1.10;;;;;;;;;;5022495;27;122008;-83
2024/04/14 15:17:02;;;;;;;6.10;1.40;;;;;;;;;;5016973;28;88805;-83
2024/04/14 15:20:05;;;;;;;6.10;1.25;;;;;;;;;;4987835;28;88021;-83
2024/04/14 15:23:18;;;;;;;4.72;1.13;;;;;;;;;;4960463;28;93767;-83
2024/04/14 15:26:02;;;;;;;6.07;1.15;;;;;;;;;;5073155;27;87906;-83
2024/04/14 15:29:02;;;;;;;5.15;1.30;;;;;;;;;;5177384;22;89790;-83
2024/04/14 15:31:45;;;;;;;6.85;1.40;;;;;;;;;;5116116;27;88476;-82
2024/04/14 15:34:38;;;;;;;5.03;1.20;;;;;;;;;;5111918;27;89936;-82
2024/04/14 15:37:29;;;;;;;5.18;1.25;;;;;;;;;;5106358;27;89340;-83
2024/04/14 15:40:34;;;;;;;6.18;1.10;;;;;;;;;;5066463;27;90974;-82
2024/04/14 15:43:34;;;;;;;5.30;1.20;;;;;;;;;;5116756;27;87315;-82
2024/04/14 15:46:58;;;;;;;4.88;1.15;;;;;;;;;;5113179;27;93812;-85
2024/04/14 15:49:49;;;;;;;6.28;1.10;;;;;;;;;;5082125;27;88770;-85
2024/04/14 15:52:42;;;;;;;4.72;1.13;;;;;;;;;;5096347;27;88112;-85
2024/04/14 15:55:55;;;;;;;2.55;0.95;;;;;;;;;;5080936;27;89969;-83
2024/04/14 15:58:58;;;;;;;4.53;1.20;;;;;;;;;;5112266;22;88287;-85
2024/04/14 16:02:01;;;;;;;5.47;1.05;;;;;;;;;;5085219;27;89855;-83
2024/04/14 16:04:51;;;;;;;4.95;1.05;;;;;;;;;;5061572;27;90418;-85
2024/04/14 16:07:34;;;;;;;4.75;1.02;;;;;;;;;;5110748;27;87271;-84
2024/04/14 16:10:06;;;;;;;7.25;1.30;;;;;;;;;;5075880;27;93427;-85
2024/04/14 16:12:48;;;;;;;5.88;1.50;;;;;;;;;;5100943;27;86295;-82
2024/04/14 16:15:40;;;;;;;4.53;1.00;;;;;;;;;;5081732;27;89633;-82
2024/04/14 16:18:45;;;;;;;5.55;1.10;;;;;;;;;;5067724;27;88113;-82
2024/04/14 16:21:25;;;;;;;5.72;1.10;;;;;;;;;;5050736;27;91324;-84
2024/04/14 16:24:09;;;;;;;4.07;0.98;;;;;;;;;;5022236;27;92774;-83
2024/04/14 16:26:50;;;;;;;2.67;1.02;;;;;;;;;;5072799;27;88313;-82
2024/04/14 16:29:42;;;;;;;3.55;1.00;;;;;;;;;;4984074;27;88117;-84
2024/04/14 16:32:19;;;;;;;5.28;1.00;;;;;;;;;;5067656;27;94024;-83
2024/04/14 16:35:08;;;;;;;5.15;1.02;;;;;;;;;;5018756;27;88566;-83
2024/04/14 16:37:48;;;;;;;4.47;1.08;;;;;;;;;;5026295;27;90099;-85
2024/04/14 16:40:43;;;;;;;3.17;1.08;;;;;;;;;;5055177;27;88327;-82
2024/04/14 16:44:07;;;;;;;4.97;1.10;;;;;;;;;;5056187;27;89752;-82
2024/04/14 16:47:16;;;;;;;3.97;0.90;;;;;;;;;;5004012;28;89746;-83
2024/04/14 16:49:50;;;;;;;;;;;;;;;;;;4991017;28;88619;-83
2024/04/14 16:56:15;;;;;;;3.97;0.90;;;;;;;;;;5002345;28;88659;-83
2024/04/14 16:58:59;;;;;;;5.85;1.13;;;;;;;;;;4966492;28;88344;-84
2024/04/14 17:02:10;;;;;;;4.82;1.17;;;;;;;;;;4973917;28;88438;-83
2024/04/14 17:05:23;;;;;;;4.93;1.02;;;;;;;;;;5061620;27;88622;-82
2024/04/14 17:08:36;;;;;;;3.67;1.10;;;;;;;;;;5008604;27;92303;-82
2024/04/14 17:11:28;;;;;;;7.13;1.35;;;;;;;;;;5036876;27;87518;-84
2024/04/14 17:14:29;;;;;;;7.60;1.23;;;;;;;;;;5076050;27;89880;-83
2024/04/14 17:17:43;;;;;;;5.35;1.20;;;;;;;;;;4938410;28;88516;-84
2024/04/14 17:20:54;;;;;;;6.53;1.20;;;;;;;;;;5035677;28;89326;-84
2024/04/14 17:23:28;;;;;;;6.35;1.20;;;;;;;;;;5039094;27;87962;-83
2024/04/14 17:26:10;;;;;;;7.88;1.20;;;;;;;;;;5006415;28;93632;-82
2024/04/14 17:28:42;;;;;;;4.93;1.30;;;;;;;;;;5028051;27;86758;-83
2024/04/14 17:31:24;;;;;;;4.28;1.00;;;;;;;;;;5035403;28;85947;-83
2024/04/14 17:33:56;;;;;;;6.47;1.02;;;;;;;;;;5042745;27;88837;-83
2024/04/14 17:36:38;;;;;;;3.70;0.95;;;;;;;;;;5088271;27;87359;-85
2024/04/14 17:39:31;;;;;;;4.85;1.05;;;;;;;;;;5097260;27;88236;-84
2024/04/14 17:42:03;;;;;;;4.80;0.98;;;;;;;;;;5162035;22;89533;-84
2024/04/14 17:44:47;;;;;;;6.18;1.10;;;;;;;;;;5098856;27;87302;-82
2024/04/14 17:47:49;;;;;;;6.65;1.30;;;;;;;;;;5087963;27;89098;-86
2024/04/14 17:50:52;;;;;;;7.32;1.40;;;;;;;;;;5233813;22;93407;-90
2024/04/14 17:54:03;;;;;;;4.47;1.10;;;;;;;;;;4765177;22;10004775;-88
2024/04/14 17:57:18;;;;;;;5.43;1.00;;;;;;;;;;5051141;27;90705;-88
2024/04/14 17:59:57;;;;;;;4.57;1.13;;;;;;;;;;5091127;27;86807;-87
2024/04/14 18:03:11;;;;;;;9.07;1.33;;;;;;;;;;5151502;27;86438;-89
2024/04/14 18:06:23;;;;;;;4.78;1.02;;;;;;;;;;5026305;28;92387;-89
2024/04/14 18:09:28;;;;;;;5.82;1.02;;;;;;;;;;5210201;22;88714;-88
2024/04/14 18:12:18;;;;;;;5.55;1.15;;;;;;;;;;5109297;27;93998;-82
2024/04/14 18:15:42;;;;;;;5.90;1.20;;;;;;;;;;5414348;22;89971;-88
2024/04/14 18:18:23;;;;;;;5.97;1.00;;;;;;;;;;5091501;27;87645;-87
2024/04/14 18:21:01;;;;;;;6.85;1.38;;;;;;;;;;5083941;27;86665;-84
2024/04/14 18:23:47;;;;;;;6.95;1.20;;;;;;;;;;5076980;27;86749;-88
2024/04/14 18:26:37;;;;;;;5.97;1.23;;;;;;;;;;5097655;27;89012;-85
2024/04/14 18:29:13;;;;;;;5.18;1.05;;;;;;;;;;5065148;27;89180;-88
2024/04/14 18:31:53;;;;;;;6.85;2.05;;;;;;;;;;5071021;27;87479;-88
2024/04/14 18:34:32;;;;;;;7.45;1.90;;;;;;;;;;5084561;27;86132;-89
2024/04/14 18:37:18;;;;;;;4.38;1.40;;;;;;;;;;5046076;27;91396;-88
2024/04/14 18:40:05;;;;;;;4.75;1.25;;;;;;;;;;5043031;27;91097;-89
2024/04/14 18:42:43;;;;;;;5.82;1.40;;;;;;;;;;5069523;27;89869;-87
2024/04/14 18:45:21;;;;;;;5.15;1.33;;;;;;;;;;5077825;27;86332;-88
2024/04/14 18:47:56;;;;;;;4.68;1.23;;;;;;;;;;5080867;27;88872;-89
2024/04/14 18:50:33;;;;;;;5.55;1.10;;;;;;;;;;5088097;27;86571;-88
2024/04/14 18:53:21;;;;;;;4.43;1.20;;;;;;;;;;5065810;27;87444;-87
2024/04/14 18:56:13;;;;;;;6.50;1.45;;;;;;;;;;5086000;27;94077;-88
2024/04/14 18:58:46;;;;;;;6.90;1.52;;;;;;;;;;5082662;27;86862;-87
2024/04/14 19:01:29;;;;;;;5.82;1.40;;;;;;;;;;5068484;27;90198;-89
2024/04/14 19:04:09;;;;;;;6.82;1.40;;;;;;;;;;5085121;27;95267;-88
2024/04/14 19:06:51;;;;;;;5.13;1.20;;;;;;;;;;5097352;27;88647;-86
2024/04/14 19:15:50;;;;;;;10.18;3.65;;;;;;;;;;5345440;22;90370;-87
2024/04/14 19:18:26;;;;;;;8.63;2.63;;;;;;;;;;5075672;27;88217;-87
2024/04/14 19:21:18;;;;;;;;;;;;;;;;;;;;;
2024/04/14 19:24:01;;;;;;;8.77;2.03;;;;;;;;;;5066855;27;88962;-88
2024/04/14 19:26:34;;;;;;;8.85;1.60;;;;;;;;;;5027935;27;87120;-89
2024/04/14 19:29:10;;;;;;;5.88;1.70;;;;;;;;;;5090713;27;89148;-89
2024/04/14 19:31:48;;;;;;;4.53;1.45;;;;;;;;;;5041948;27;88429;-85
2024/04/14 19:34:21;;;;;;;6.03;1.60;;;;;;;;;;5102686;27;88924;-87
2024/04/14 19:36:51;;;;;;;5.88;1.73;;;;;;;;;;5075516;27;88574;-86
2024/04/14 19:39:22;;;;;;;6.30;1.58;;;;;;;;;;5076467;27;90356;-88
2024/04/14 19:41:51;;;;;;;4.53;1.40;;;;;;;;;;5092698;27;86186;-89
2024/04/14 19:44:30;;;;;;;4.93;1.58;;;;;;;;;;5083945;27;89984;-88
2024/04/14 19:47:09;;;;;;;3.83;1.30;;;;;;;;;;5086432;27;89416;-88
2024/04/14 19:49:45;;;;;;;7.57;1.50;;;;;;;;;;5093950;27;88596;-87
2024/04/14 19:52:16;;;;;;;4.68;1.48;;;;;;;;;;5077348;27;87108;-86
2024/04/14 19:54:54;;;;;;;4.20;1.17;;;;;;;;;;5094021;27;86380;-87
2024/04/14 19:57:25;;;;;;;5.28;1.35;;;;;;;;;;5086831;27;86323;-87
2024/04/14 19:59:56;;;;;;;4.68;1.20;;;;;;;;;;5078206;27;88903;-89
2024/04/14 20:02:43;;;;;;;7.80;1.50;;;;;;;;;;5084602;27;88742;-86
2024/04/14 20:05:17;;;;;;;4.93;1.42;;;;;;;;;;5070791;27;89835;-87
2024/04/14 20:07:57;;;;;;;6.50;1.42;;;;;;;;;;5047051;27;89647;-87
2024/04/14 20:10:34;;;;;;;5.10;1.55;;;;;;;;;;5075900;27;86879;-89
2024/04/14 20:13:12;;;;;;;6.57;1.65;;;;;;;;;;5105828;27;86577;-89
2024/04/14 20:15:48;;;;;;;4.38;1.45;;;;;;;;;;5101428;27;87943;-87
2024/04/14 20:18:19;;;;;;;5.22;1.42;;;;;;;;;;5128893;27;86869;-86
2024/04/14 20:20:52;;;;;;;7.22;1.60;;;;;;;;;;5110290;27;86888;-86
2024/04/14 20:23:21;;;;;;;6.43;1.50;;;;;;;;;;5120383;27;87002;-86
2024/04/14 20:25:52;;;;;;;4.95;1.50;;;;;;;;;;5055038;27;88021;-78
2024/04/14 20:28:28;;;;;;;4.40;1.20;;;;;;;;;;5108404;27;87314;-89
2024/04/14 20:31:08;;;;;;;5.10;1.60;;;;;;;;;;5110309;27;88876;-86
2024/04/14 20:33:55;;;;;;;7.30;1.52;;;;;;;;;;5047033;27;87998;-84
2024/04/14 20:36:44;;;;;;;5.65;1.60;;;;;;;;;;5121038;27;92111;-85
2024/04/14 20:42:53;;;;;;;6.80;1.70;;;;;;;;;;5069600;27;86621;-85
2024/04/14 20:45:52;;;;;;;5.25;1.45;;;;;;;;;;4990071;27;87141;-86
2024/04/14 20:48:42;;;;;;;;;;;;;;;;;;;;;
2024/04/14 20:52:00;;;;;;;4.88;1.40;;;;;;;;;;5044280;27;87778;-85
2024/04/14 20:55:25;;;;;;;4.00;1.50;;;;;;;;;;4966760;28;87692;-86
2024/04/14 20:57:56;;;;;;;4.38;1.38;;;;;;;;;;4962155;28;89677;-86
2024/04/14 21:00:46;;;;;;;14.98;2.00;;;;;;;;;;4988432;28;87188;-86
2024/04/14 21:03:53;;;;;;;8.55;1.50;;;;;;;;;;5116297;27;86097;-90
2024/04/14 21:06:25;;;;;;;8.10;1.60;;;;;;;;;;5050163;27;93228;-86
2024/04/14 21:08:54;;;;;;;10.50;1.50;;;;;;;;;;5052803;27;86312;-86
2024/04/14 21:11:23;;;;;;;8.35;2.00;;;;;;;;;;5081506;27;86463;-86
2024/04/14 21:13:55;;;;;;;6.93;1.60;;;;;;;;;;5045715;27;87610;-89
2024/04/14 21:16:32;;;;;;;6.43;1.50;;;;;;;;;;5024384;27;86702;-90
2024/04/14 21:19:13;;;;;;;17.23;1.80;;;;;;;;;;5063697;27;88659;-91
2024/04/14 21:21:54;;;;;;;10.43;2.00;;;;;;;;;;5072479;27;90433;-87
2024/04/14 21:24:26;;;;;;;7.93;1.60;;;;;;;;;;5084979;27;86999;-85
2024/04/14 21:27:03;;;;;;;6.07;1.60;;;;;;;;;;5076158;27;90482;-86
2024/04/14 21:29:50;;;;;;;10.65;1.60;;;;;;;;;;5002537;28;89722;-88
2024/04/14 21:32:21;;;;;;;9.57;1.70;;;;;;;;;;5020127;28;92291;-88
2024/04/14 21:34:55;;;;;;;7.47;1.73;;;;;;;;;;5027648;28;86805;-88
2024/04/14 21:37:29;;;;;;;6.90;1.50;;;;;;;;;;5031075;27;89312;-90
2024/04/14 21:40:10;;;;;;;10.50;1.65;;;;;;;;;;5081922;27;94371;-87
2024/04/14 21:42:38;;;;;;;8.02;1.58;;;;;;;;;;5072594;27;87668;-88
2024/04/14 21:45:08;;;;;;;5.20;1.60;;;;;;;;;;5061460;27;87026;-86
2024/04/14 21:47:36;;;;;;;8.05;1.77;;;;;;;;;;5114573;27;87542;-84
2024/04/14 21:50:04;;;;;;;9.77;1.80;;;;;;;;;;5114550;27;89088;-83
2024/04/14 21:52:31;;;;;;;7.05;1.75;;;;;;;;;;5073834;27;88589;-86
2024/04/14 21:54:59;;;;;;;6.93;1.80;;;;;;;;;;5090386;27;86809;-86
2024/04/14 21:57:27;;;;;;;8.23;1.88;;;;;;;;;;5115062;27;87807;-87
2024/04/14 21:59:57;;;;;;;6.15;1.60;;;;;;;;;;5064232;27;89562;-83
2024/04/14 22:02:24;;;;;;;6.65;1.55;;;;;;;;;;5028306;27;88227;-84
2024/04/14 22:04:52;;;;;;;4.55;1.58;;;;;;;;;;5019909;27;88769;-86
2024/04/14 22:07:20;;;;;;;5.88;1.70;;;;;;;;;;5073698;27;86762;-85
2024/04/14 22:09:48;;;;;;;6.82;1.63;;;;;;;;;;5025613;27;88075;-84
2024/04/14 22:12:16;;;;;;;5.88;1.55;;;;;;;;;;5082328;27;87496;-85
2024/04/14 22:14:43;;;;;;;5.43;1.45;;;;;;;;;;5057297;27;87704;-84
2024/04/14 22:17:11;;;;;;;4.35;1.58;;;;;;;;;;5083062;27;92672;-84
2024/04/14 22:19:40;;;;;;;7.72;1.42;;;;;;;;;;5054318;27;87441;-85
2024/04/14 22:22:08;;;;;;;4.35;1.35;;;;;;;;;;5085627;27;89109;-85
2024/04/14 22:24:36;;;;;;;6.28;1.60;;;;;;;;;;5082158;27;86567;-85
2024/04/14 22:27:04;;;;;;;6.07;1.52;;;;;;;;;;5029453;27;89271;-84
2024/04/14 22:29:31;;;;;;;17.52;1.80;;;;;;;;;;5055862;27;86825;-85
2024/04/14 22:32:02;;;;;;;6.65;1.42;;;;;;;;;;5079548;27;86078;-84
2024/04/14 22:34:32;;;;;;;7.30;1.55;;;;;;;;;;5078271;27;88096;-84
2024/04/14 22:37:02;;;;;;;6.03;1.60;;;;;;;;;;5050339;27;90469;-84
2024/04/14 22:39:32;;;;;;;6.15;1.73;;;;;;;;;;5050011;27;88164;-87
2024/04/14 22:42:05;;;;;;;5.28;1.60;;;;;;;;;;5049327;27;92525;-87
2024/04/14 22:44:35;;;;;;;7.45;1.38;;;;;;;;;;5083029;27;86650;-87
2024/04/14 22:47:04;;;;;;;6.63;1.50;;;;;;;;;;5028542;27;89018;-86
2024/04/14 22:49:32;;;;;;;4.32;1.40;;;;;;;;;;5083143;27;87406;-85
2024/04/14 22:51:59;;;;;;;6.55;1.55;;;;;;;;;;5080320;27;87146;-84
2024/04/14 22:54:27;;;;;;;5.75;1.40;;;;;;;;;;5055198;27;89314;-84